首页
METAR-TAF:

METAR-TAF

机场 :

安克拉治Elmendorf, 阿拉斯加州, 美国

纬度: 61-15-11N, 经度: 149-47-38W, 海拔: 65米

当前天气观测

该预报发布于43分钟前的09:55 UTC
风速3节,风向
温度 9°C
湿度 81%
气压 1018 hPa
能見度: 16.1公里
少量云层高于4500英尺
散云层高于20000英尺

METAR: PAED 190955Z 10003KT 10SM FEW045 SCT200 09/06 A3006 RMK AO2A SLP176 Q1018 T00870060

时间: 02:38 (10:38 UTC)

预报

该预报发布于5小时和38分钟前的05:00 UTC
预报有效从19日的 05点(UTC)到 20日的 11点(UTC)
风速9节,风向西转西南
能见度10公里或以上
少量云层高于5000英尺
散云层高于20000英尺
成为
从 19日的 10点(UTC)到 19日的 11点(UTC)
风速6节,风向多变
能见度10公里或以上
少量云层高于1000英尺
散云层高于2000英尺
散云层高于20000英尺
成为
从 19日的 19点(UTC)到 19日的 20点(UTC)
风速9节,风向西转西南
能见度10公里或以上
少量云层高于1000英尺
多云层高于18000英尺

TAF: PAED 190500Z 1905/2011 25009KT 9999 FEW050 SCT200 QNH3002INS BECMG 1910/1911 VRB06KT 9999 FEW010 SCT020 SCT200 QNH3004INS BECMG 1919/1920 25009KT 9999 FEW010 BKN180 QNH2998INS TX17/2001Z TN08/1914Z

超过4000个机场的气象观测和天气预报(METAR&TAF报告)。

可查询的气象台以黄色和红色小点在地图上表示。

将鼠标移到小点上方,可查看气象台名称。

然后点击查看天气观测和预报。

如需切换地图:点击带黑十字的绿色按钮放大地图;点击带横线的绿色按钮缩小地图;或者点击绿色箭头查看邻近地区的地图。


METAR-TAF: